Farmville, VA

9:28 PM EDT on April 24, 2017 (GMT -0400)
Farmville Regional | | Change Station

Elev 417 ft 37.36 °N, 78.44 °W | Updated 13 minutes ago

Light Rain
Light Rain
53 °F
Feels Like 53 °F
N
14
Wind Variable Wind from NNE
Gusts 23 mph

Today
High -- | Low -- °F
--% Chance of Precip.
Yesterday
High -- | Low -- °F
Precip. -- in
Pressure 29.89 in
Visibility 7.0 miles
Clouds Overcast 500 ft
Dew Point 53 °F
Humidity 100%
Rainfall 2.02 in
Snow Depth Not available.
6:26 AM 7:57 PM
Waning Crescent, 3% visible
METAR KFVX 250115Z AUTO 02012G20KT 7SM -RA OVC005 12/12 A2989 RMK AO2 P0001 T01150115
Pressure 29.89 in
Visibility 7.0 miles
Clouds Overcast 500 ft
Dew Point 53 °F
Humidity 100%
Rainfall 2.02 in
Snow Depth Not available.
6:26 AM 7:57 PM
Waning Crescent, 3% visible
METAR KFVX 250115Z AUTO 02012G20KT 7SM -RA OVC005 12/12 A2989 RMK AO2 P0001 T01150115

Get Severe Weather Alerts

Thanks for signing up!

Be on the lookout for a verification email in your inbox.

You'll start receiving the daily forecast at 8 AM.

×

10-Day Weather Forecast

Almanac

Astronomy

Apr. 24, 2017 Rise Set
Actual Time
Civil Twilight
Nautical Twilight
Astronomical Twilight
Moon
Length of Visible Light
Length of Day
Tomorrow will be .
, % of the Moon is Illuminated

Today's Extremes

State Highs State Lows

Community

WunderPhotos

WunderBlog® & News

Nearby

Air Quality

  Air Quality AQ Index Pollutant
Not available.

Snow Depth

Station Depth Elevation

Earthquake Activity

City Distance Mag. Time & Date
Minimum magnitude displayed is 2.5.

Coastal Water Temperatures

Place Temperature

Stations

Nearby Weather Stations

Station Location Temp. Windchill Dew Point Humidity Wind Precip. Elev Updated Type
                   

Watches & Warnings

There are currently no watches in effect.